Time;durP1;ratioP1;P1;durP2;ratioP2;P2;SDS_P1;SDS_P2;PMS_P1;PMS_P2;Temp;Humidity;BMP_temperature;BMP_pressure;BME280_temperature;BME280_humidity;BME280_pressure;Samples;Min_cycle;Max_cycle;Signal;HPM_P1;HPM_P2
2022/12/22 03:25:52;;;;;;;20.77;18.70;;;;;;;3.08;100.00;99151.16;10416032;28;20048;-69
2022/12/22 03:31:04;;;;;;;19.00;17.25;;;;;;;3.16;100.00;99154.50;10397408;28;20120;-69
2022/12/22 03:36:07;;;;;;;19.42;17.42;;;;;;;3.07;100.00;99145.13;10415995;28;20041;-69
2022/12/22 03:46:28;;;;;;;19.35;17.63;;;;;;;2.93;100.00;99128.91;10422736;28;20041;-69
2022/12/22 03:46:30;;;;;;;20.25;18.38;;;;;;;3.15;100.00;99125.09;10423601;28;20037;-69
2022/12/22 03:51:33;;;;;;;20.15;18.23;;;;;;;2.89;100.00;99127.22;10423441;28;20514;-69
2022/12/22 03:56:35;;;;;;;22.92;19.25;;;;;;;3.15;100.00;99119.03;10422823;28;20045;-69
2022/12/22 04:01:40;;;;;;;20.38;18.50;;;;;;;3.25;100.00;99123.19;10422761;28;20037;-69
2022/12/22 04:06:43;;;;;;;21.33;18.85;;;;;;;3.22;100.00;99121.47;10422955;28;20048;-70
2022/12/22 04:17:06;;;;;;;21.48;19.38;;;;;;;3.20;100.00;99110.28;10422336;28;20052;-69
2022/12/22 04:22:08;;;;;;;21.08;19.15;;;;;;;3.39;100.00;99110.81;10405066;28;20076;-69
2022/12/22 04:27:09;;;;;;;21.55;19.40;;;;;;;3.21;100.00;99095.53;10422359;28;20045;-69
2022/12/22 04:32:11;;;;;;;23.02;20.70;;;;;;;3.30;100.00;99092.78;10421414;28;20501;-69
2022/12/22 04:37:13;;;;;;;21.30;19.00;;;;;;;3.15;100.00;99093.06;10421767;28;20466;-69
2022/12/22 04:42:18;;;;;;;22.13;19.95;;;;;;;3.35;100.00;99077.13;10421344;28;20041;-69
2022/12/22 04:47:20;;;;;;;22.50;20.40;;;;;;;3.42;100.00;99073.53;10421377;28;20125;-69
2022/12/22 04:52:22;;;;;;;21.17;18.90;;;;;;;3.39;100.00;99066.66;10420559;28;20041;-69
2022/12/22 04:57:23;;;;;;;20.95;18.95;;;;;;;3.44;100.00;99067.41;10421365;28;20045;-69
2022/12/22 05:02:25;;;;;;;20.40;18.50;;;;;;;3.34;100.00;99052.03;10420130;28;20041;-69
2022/12/22 05:07:27;;;;;;;20.08;18.27;;;;;;;3.41;100.00;99046.72;10420052;28;20406;-69
2022/12/22 05:17:49;;;;;;;20.75;18.58;;;;;;;3.60;100.00;99036.81;10420225;28;20046;-69
2022/12/22 05:22:51;;;;;;;26.08;18.92;;;;;;;3.31;100.00;99034.75;10419999;28;20037;-69
2022/12/22 05:27:53;;;;;;;22.60;19.98;;;;;;;3.24;100.00;99031.44;10420204;28;20048;-69
2022/12/22 05:32:55;;;;;;;20.92;19.02;;;;;;;3.52;100.00;99023.97;10419357;28;20038;-69
2022/12/22 05:37:57;;;;;;;20.80;18.75;;;;;;;3.56;100.00;99016.13;10419840;28;20045;-69
2022/12/22 05:42:58;;;;;;;24.08;20.40;;;;;;;3.28;100.00;99012.31;10419414;28;20044;-69
2022/12/22 05:48:00;;;;;;;22.05;19.98;;;;;;;3.27;100.00;99002.78;10418771;28;20076;-69
2022/12/22 05:53:03;;;;;;;24.30;20.38;;;;;;;3.14;100.00;98998.69;10419547;28;20038;-69
2022/12/22 05:58:05;;;;;;;24.33;20.52;;;;;;;3.38;100.00;98994.81;10419392;28;20049;-69
2022/12/22 06:03:06;;;;;;;22.00;20.02;;;;;;;3.54;100.00;98993.63;10400890;28;20380;-69
2022/12/22 06:08:09;;;;;;;22.17;19.73;;;;;;;3.66;100.00;98989.91;10417980;28;20042;-69
2022/12/22 06:13:10;;;;;;;23.17;18.65;;;;;;;3.42;100.00;98986.06;10417421;28;20415;-69
2022/12/22 06:18:12;;;;;;;23.05;19.50;;;;;;;3.59;100.00;98982.28;10399532;28;20050;-68
2022/12/22 06:23:14;;;;;;;20.52;18.60;;;;;;;3.71;100.00;98979.41;10399655;28;20079;-68
2022/12/22 06:28:15;;;;;;;23.98;18.42;;;;;;;3.68;100.00;98982.09;10417130;28;20129;-69
2022/12/22 06:33:17;;;;;;;23.25;19.98;;;;;;;3.62;100.00;98980.47;10417469;28;20103;-70
2022/12/22 06:38:19;;;;;;;21.45;19.30;;;;;;;3.59;100.00;98977.09;10417273;28;20056;-70
2022/12/22 06:43:21;;;;;;;20.58;18.45;;;;;;;3.58;100.00;98975.34;10398791;28;20045;-70
2022/12/22 06:48:23;;;;;;;21.67;19.50;;;;;;;3.58;100.00;98978.81;10417247;28;20051;-70
2022/12/22 06:53:25;;;;;;;20.75;18.55;;;;;;;3.41;100.00;98986.06;10417076;28;20055;-69
2022/12/22 06:58:27;;;;;;;21.30;19.17;;;;;;;3.49;100.00;98992.84;10416385;28;20052;-70
2022/12/22 07:03:29;;;;;;;22.30;20.05;;;;;;;3.41;100.00;98975.69;10416472;28;20068;-70
2022/12/22 07:08:31;;;;;;;21.50;19.25;;;;;;;3.56;100.00;98961.56;10415745;28;20117;-70
2022/12/22 07:13:34;;;;;;;20.48;18.77;;;;;;;3.57;100.00;98945.91;10415238;28;20406;-69
2022/12/22 07:18:41;;;;;;;20.92;18.77;;;;;;;3.83;100.00;98953.16;10415815;28;20491;-69
2022/12/22 07:23:42;;;;;;;19.95;18.05;;;;;;;3.73;100.00;98946.47;10416060;28;20395;-69
2022/12/22 07:28:44;;;;;;;22.63;19.80;;;;;;;3.87;100.00;98944.41;10398499;28;20124;-69
2022/12/22 07:33:46;;;;;;;20.42;18.38;;;;;;;4.04;100.00;98929.28;10415159;28;20042;-70
2022/12/22 07:38:50;;;;;;;17.40;15.90;;;;;;;3.90;100.00;98933.97;10396984;28;20103;-70
2022/12/22 07:43:53;;;;;;;19.30;17.40;;;;;;;3.98;100.00;98920.75;10416629;28;20412;-69
2022/12/22 07:54:15;;;;;;;19.40;17.40;;;;;;;4.26;100.00;98924.44;10396948;28;20128;-69
2022/12/22 07:59:17;;;;;;;17.30;15.80;;;;;;;4.22;100.00;98915.00;10397489;28;20399;-70
2022/12/22 08:04:21;;;;;;;20.05;17.65;;;;;;;4.30;100.00;98920.03;10415430;28;20060;-70
2022/12/22 08:09:23;;;;;;;18.20;16.50;;;;;;;4.37;100.00;98913.75;10414449;28;20095;-72
2022/12/22 08:14:25;;;;;;;18.50;16.90;;;;;;;4.50;100.00;98902.16;10397335;28;20407;-70
2022/12/22 08:19:27;;;;;;;17.48;15.77;;;;;;;4.63;100.00;98892.28;10414330;28;20045;-70
2022/12/22 08:24:29;;;;;;;17.75;15.85;;;;;;;4.83;100.00;98875.31;10417379;28;20074;-69
2022/12/22 08:29:35;;;;;;;15.77;14.38;;;;;;;5.11;100.00;98870.19;10405711;28;20045;-70
2022/12/22 08:34:37;;;;;;;14.25;12.85;;;;;;;5.19;100.00;98869.06;10423288;28;20046;-69
2022/12/22 08:39:52;;;;;;;15.15;13.85;;;;;;;5.44;100.00;98857.91;10422201;28;20104;-69
2022/12/22 08:44:54;;;;;;;15.38;14.07;;;;;;;5.64;100.00;98839.94;10386124;28;20419;-71
2022/12/22 08:49:57;;;;;;;14.05;12.85;;;;;;;5.78;100.00;98839.50;10385359;28;20407;-71
2022/12/22 08:54:59;;;;;;;13.80;12.35;;;;;;;6.04;100.00;98833.47;10382501;28;20041;-71
2022/12/22 09:00:01;;;;;;;13.65;12.55;;;;;;;6.12;100.00;98826.28;10381531;28;20044;-70
2022/12/22 09:05:03;;;;;;;12.73;11.32;;;;;;;6.68;100.00;98822.59;10380548;28;20064;-70
2022/12/22 09:10:06;;;;;;;12.82;11.82;;;;;;;6.65;100.00;98825.34;10380159;28;20046;-71
2022/12/22 09:15:08;;;;;;;10.93;9.98;;;;;;;6.97;100.00;98817.19;10379030;28;20057;-71
2022/12/22 09:20:10;;;;;;;10.55;9.65;;;;;;;7.09;100.00;98815.91;10379699;28;20048;-70
2022/12/22 09:25:13;;;;;;;11.00;10.02;;;;;;;7.18;100.00;98815.56;10379749;28;20042;-71
2022/12/22 09:30:14;;;;;;;10.30;9.40;;;;;;;7.58;100.00;98819.28;10379421;28;20407;-71
2022/12/22 09:35:16;;;;;;;8.50;7.70;;;;;;;7.68;100.00;98810.16;10378331;28;20092;-71
2022/12/22 09:40:20;;;;;;;1.23;1.13;;;;;;;8.40;100.00;98801.13;10379578;28;20045;-71
2022/12/22 09:45:22;;;;;;;3.40;1.05;;;;;;;8.81;100.00;98781.88;10379369;28;20052;-70
2022/12/22 09:50:25;;;;;;;1.35;0.90;;;;;;;9.27;97.02;98774.50;10379116;28;20506;-71
2022/12/22 09:55:39;;;;;;;2.05;1.10;;;;;;;9.30;98.65;98782.25;10379125;28;20050;-70
2022/12/22 10:00:42;;;;;;;1.35;1.08;;;;;;;9.39;97.44;98770.47;10378529;28;20484;-71
2022/12/22 10:06:21;;;;;;;2.15;0.95;;;;;;;9.42;97.79;98757.19;10379593;28;20046;-70
2022/12/22 10:11:23;;;;;;;1.52;1.25;;;;;;;9.41;99.38;98742.41;10378703;28;20045;-70
2022/12/22 10:16:27;;;;;;;2.58;1.60;;;;;;;9.64;96.53;98733.41;10378352;28;20376;-71
2022/12/22 10:21:29;;;;;;;2.17;1.13;;;;;;;9.76;95.24;98734.59;10378027;28;20037;-71
2022/12/22 10:26:33;;;;;;;1.33;0.80;;;;;;;10.30;88.39;98715.25;10377927;28;20066;-70
2022/12/22 10:31:43;;;;;;;1.38;0.70;;;;;;;10.06;90.37;98711.22;10377302;28;20491;-71
2022/12/22 10:36:47;;;;;;;0.80;0.60;;;;;;;10.06;89.76;98719.09;10377671;28;20056;-71
2022/12/22 10:41:53;;;;;;;0.52;0.50;;;;;;;10.14;87.99;98716.94;10377139;28;20038;-70
2022/12/22 10:46:58;;;;;;;0.83;0.70;;;;;;;9.99;90.66;98718.53;10378141;28;20076;-71
2022/12/22 10:52:15;;;;;;;0.40;0.40;;;;;;;10.10;89.02;98713.63;10359449;28;20661;-70
2022/12/22 10:57:17;;;;;;;2.85;0.60;;;;;;;10.22;89.29;98712.13;10376898;28;20042;-70
2022/12/22 11:02:36;;;;;;;0.50;0.40;;;;;;;10.28;89.29;98703.13;10376495;28;20093;-71
2022/12/22 11:07:41;;;;;;;0.30;0.30;;;;;;;10.42;88.51;98698.00;10376821;28;20407;-70
2022/12/22 11:13:08;;;;;;;0.22;0.22;;;;;;;10.41;89.61;98680.56;10358591;28;20049;-71
2022/12/22 11:18:52;;;;;;;0.50;0.30;;;;;;;10.75;86.27;98676.94;10348956;28;20527;-71
2022/12/22 11:24:11;;;;;;;0.20;0.20;;;;;;;10.60;88.39;98665.50;10356858;28;20057;-72
2022/12/22 11:30:07;;;;;;;0.40;0.30;;;;;;;10.51;91.43;98660.72;10376012;28;20052;-70
2022/12/22 11:35:15;;;;;;;0.30;0.30;;;;;;;10.25;93.39;98640.25;10255261;29;20075;-72
2022/12/22 11:40:29;;;;;;;1.00;0.45;;;;;;;10.31;92.37;98638.16;10237270;29;20051;-72
2022/12/22 11:45:43;;;;;;;1.23;0.20;;;;;;;9.94;95.47;98636.56;10253533;28;20055;-71
2022/12/22 11:50:53;;;;;;;0.93;0.40;;;;;;;10.05;93.99;98625.53;10252571;29;20057;-70
2022/12/22 11:56:12;;;;;;;0.63;0.40;;;;;;;10.14;92.74;98626.78;10251228;29;20139;-71
2022/12/22 12:01:38;;;;;;;0.52;0.35;;;;;;;10.24;92.00;98626.28;10256426;28;20158;-71
2022/12/22 12:06:49;;;;;;;2.35;0.90;;;;;;;10.24;91.55;98620.16;10258561;28;20063;-71
2022/12/22 12:12:03;;;;;;;0.43;0.35;;;;;;;10.17;91.67;98616.13;10382994;28;20053;-71
2022/12/22 12:17:12;;;;;;;0.82;0.40;;;;;;;10.22;91.54;98614.97;10384470;28;20077;-71
2022/12/22 12:22:51;;;;;;;0.95;0.40;;;;;;;10.22;91.28;98620.22;10362366;28;20045;-70
2022/12/22 12:28:05;;;;;;;1.38;0.70;;;;;;;10.37;90.34;98618.59;10395938;28;20426;-69
2022/12/22 12:33:20;;;;;;;1.73;0.45;;;;;;;10.65;88.80;98617.09;10366799;28;20392;-72
2022/12/22 12:38:33;;;;;;;1.42;0.70;;;;;;;10.69;88.96;98613.38;10415450;28;20445;-71
2022/12/22 12:43:56;;;;;;;1.00;0.50;;;;;;;11.08;85.32;98623.47;10383213;28;20053;-71
2022/12/22 12:48:59;;;;;;;1.15;0.50;;;;;;;11.24;84.33;98620.78;10410166;28;20041;-71
2022/12/22 12:54:40;;;;;;;0.68;0.52;;;;;;;11.40;83.87;98615.53;10421513;28;20045;-72
2022/12/22 12:59:42;;;;;;;1.10;0.35;;;;;;;11.59;81.70;98624.03;10380346;28;20483;-71
2022/12/22 13:05:11;;;;;;;1.23;0.43;;;;;;;11.61;80.79;98625.66;10363141;28;20088;-71
2022/12/22 13:10:23;;;;;;;1.00;0.40;;;;;;;11.72;78.82;98616.25;10380841;28;20411;-72
2022/12/22 13:15:34;;;;;;;0.43;0.20;;;;;;;11.72;78.37;98622.38;10380321;28;20042;-71
2022/12/22 13:20:37;;;;;;;0.45;0.30;;;;;;;11.53;80.30;98627.88;10380679;28;20076;-71
2022/12/22 13:25:41;;;;;;;0.40;0.30;;;;;;;11.72;78.33;98619.75;10389113;28;20485;-71
2022/12/22 13:30:58;;;;;;;0.73;0.40;;;;;;;11.71;78.16;98623.31;10419718;28;20041;-71
2022/12/22 13:36:00;;;;;;;1.77;0.50;;;;;;;11.55;78.98;98636.53;10420579;28;20041;-71
2022/12/22 13:41:12;;;;;;;1.02;0.40;;;;;;;11.74;78.24;98624.94;10419009;28;20034;-71
2022/12/22 13:46:14;;;;;;;0.45;0.30;;;;;;;11.73;77.83;98626.72;10419158;28;20154;-71
2022/12/22 13:51:21;;;;;;;0.38;0.30;;;;;;;11.69;78.29;98633.09;10419246;28;20095;-71
2022/12/22 13:56:26;;;;;;;0.90;0.40;;;;;;;11.39;80.44;98627.81;10420314;28;20038;-71
2022/12/22 14:01:28;;;;;;;1.40;0.70;;;;;;;11.55;79.42;98636.53;10419816;28;20043;-71
2022/12/22 14:06:33;;;;;;;1.85;0.73;;;;;;;11.42;81.05;98637.31;10418935;28;20045;-71
2022/12/22 14:11:35;;;;;;;1.10;0.40;;;;;;;11.23;81.76;98625.22;10419006;28;20495;-71
2022/12/22 14:16:46;;;;;;;0.77;0.40;;;;;;;11.33;81.11;98630.78;10402148;28;20521;-71
2022/12/22 14:22:01;;;;;;;1.85;0.52;;;;;;;11.33;80.77;98636.94;10419176;28;20099;-71
2022/12/22 14:27:02;;;;;;;1.30;0.47;;;;;;;11.36;80.49;98635.88;10418947;28;20054;-71
2022/12/22 14:32:04;;;;;;;0.60;0.40;;;;;;;11.39;80.64;98640.13;10417859;28;20053;-71
2022/12/22 14:37:08;;;;;;;1.73;0.55;;;;;;;11.34;81.23;98648.28;10418052;28;20092;-71
2022/12/22 14:42:13;;;;;;;2.08;0.50;;;;;;;11.26;81.72;98645.25;10432775;22;20049;-73
2022/12/22 14:47:19;;;;;;;1.25;0.73;;;;;;;11.04;82.77;98659.59;10419077;28;20037;-75
2022/12/22 14:52:28;;;;;;;1.73;0.50;;;;;;;11.16;82.93;98671.22;10365997;28;20499;-74
2022/12/22 14:57:39;;;;;;;0.50;0.30;;;;;;;11.08;84.86;98674.28;10376554;28;20041;-73
2022/12/22 15:02:49;;;;;;;1.00;0.40;;;;;;;11.05;85.43;98684.94;10374871;28;20046;-74
2022/12/22 15:07:53;;;;;;;1.67;0.43;;;;;;;10.96;87.04;98695.97;10376037;28;20045;-74
2022/12/22 15:13:21;;;;;;;1.48;0.50;;;;;;;10.93;88.32;98705.81;10375856;28;20072;-73
2022/12/22 15:18:26;;;;;;;0.40;0.40;;;;;;;10.82;90.70;98715.13;10358408;28;20064;-73
2022/12/22 15:23:27;;;;;;;1.27;0.50;;;;;;;10.52;95.62;98733.38;10375486;28;20081;-74
2022/12/22 15:28:30;;;;;;;0.65;0.30;;;;;;;10.43;100.00;98735.63;10375378;28;20100;-74
2022/12/22 15:33:31;;;;;;;1.17;0.50;;;;;;;10.11;100.00;98751.22;10378115;28;20410;-74
2022/12/22 15:38:33;;;;;;;0.60;0.60;;;;;;;9.99;100.00;98765.81;10391631;28;20431;-73
2022/12/22 15:43:39;;;;;;;1.50;0.60;;;;;;;9.88;100.00;98786.50;10400515;28;20049;-73
2022/12/22 15:48:59;;;;;;;3.38;2.88;;;;;;;9.81;100.00;98792.94;10415349;28;20095;-72
2022/12/22 15:54:02;;;;;;;2.88;0.90;;;;;;;9.64;100.00;98806.88;10374154;28;20042;-72
2022/12/22 15:59:04;;;;;;;2.30;0.60;;;;;;;9.58;100.00;98809.81;10374414;28;20437;-73
2022/12/22 16:04:06;;;;;;;1.45;0.80;;;;;;;9.53;100.00;98824.91;10375160;28;20037;-73
2022/12/22 16:09:20;;;;;;;6.90;1.10;;;;;;;9.48;100.00;98838.25;10398646;28;20045;-73
2022/12/22 16:14:23;;;;;;;1.98;0.90;;;;;;;9.18;100.00;98839.66;10415882;28;20065;-72
2022/12/22 16:19:24;;;;;;;1.77;0.75;;;;;;;9.20;100.00;98851.75;10414672;28;20105;-72
2022/12/22 16:24:33;;;;;;;2.97;0.90;;;;;;;9.19;100.00;98859.69;10415691;28;20052;-72
2022/12/22 16:29:35;;;;;;;0.93;0.85;;;;;;;9.12;100.00;98874.84;10414874;28;20159;-74
2022/12/22 16:34:37;;;;;;;1.67;1.25;;;;;;;8.96;100.00;98890.41;10414462;28;20421;-72
2022/12/22 16:39:38;;;;;;;1.80;1.40;;;;;;;8.89;100.00;98899.44;10415473;28;20059;-73
2022/12/22 16:44:42;;;;;;;3.10;2.90;;;;;;;8.74;100.00;98900.09;10380123;28;20081;-73
2022/12/22 16:50:02;;;;;;;5.70;5.30;;;;;;;8.70;100.00;98927.34;10381556;28;20041;-73
2022/12/22 16:55:20;;;;;;;6.88;6.30;;;;;;;8.86;100.00;98938.03;10380834;28;20491;-73
2022/12/22 17:00:27;;;;;;;9.50;8.90;;;;;;;8.64;100.00;98945.94;10381213;28;20511;-73
2022/12/22 17:05:49;;;;;;;;;;;;;;;8.81;100.00;98951.34;10380295;28;20069;-72
2022/12/22 17:10:54;;;;;;;10.85;10.05;;;;;;;8.71;100.00;98957.84;10378286;28;19921;-72
2022/12/22 17:15:55;;;;;;;12.38;11.30;;;;;;;8.46;100.00;98963.25;10380682;28;20045;-73
2022/12/22 17:20:59;;;;;;;11.40;10.70;;;;;;;8.44;100.00;98972.94;10379458;28;20042;-72
2022/12/22 17:26:05;;;;;;;11.15;10.45;;;;;;;8.45;100.00;98980.72;10379055;28;20116;-72
2022/12/22 17:31:13;;;;;;;13.15;11.90;;;;;;;8.48;100.00;98990.22;10380301;28;20038;-72
2022/12/22 17:36:16;;;;;;;11.02;10.23;;;;;;;8.65;100.00;98997.41;10379994;28;20113;-72
2022/12/22 17:41:19;;;;;;;12.00;11.05;;;;;;;8.44;100.00;98993.88;10378497;28;20034;-73
2022/12/22 17:46:21;;;;;;;11.60;10.75;;;;;;;8.58;100.00;98995.03;10378652;28;20049;-72
2022/12/22 17:51:27;;;;;;;9.88;9.25;;;;;;;8.61;100.00;99001.91;10378498;28;20042;-72
2022/12/22 17:56:29;;;;;;;9.48;8.77;;;;;;;8.57;100.00;98998.56;10377270;28;20046;-74
2022/12/22 18:01:32;;;;;;;9.48;8.88;;;;;;;8.64;100.00;99006.19;10377232;28;20096;-72
2022/12/22 18:06:37;;;;;;;10.65;9.93;;;;;;;8.20;100.00;99016.59;10380719;28;20042;-72
2022/12/22 18:11:39;;;;;;;10.88;10.07;;;;;;;8.19;100.00;99020.13;10383284;28;20050;-74
2022/12/22 18:16:46;;;;;;;11.73;10.93;;;;;;;8.15;100.00;99029.03;10380130;28;20080;-72
2022/12/22 18:21:48;;;;;;;13.00;12.00;;;;;;;8.31;100.00;99035.38;10377385;28;20045;-73
2022/12/22 18:26:50;;;;;;;12.90;11.82;;;;;;;8.33;100.00;99039.63;10362249;28;20438;-73
2022/12/22 18:31:51;;;;;;;13.32;12.27;;;;;;;8.33;100.00;99047.50;10378868;28;20042;-72
2022/12/22 18:36:53;;;;;;;12.07;11.23;;;;;;;8.56;100.00;99051.88;10360894;28;20042;-73
2022/12/22 18:41:55;;;;;;;12.20;11.30;;;;;;;8.35;100.00;99050.03;10376219;28;20071;-72
2022/12/22 18:46:57;;;;;;;12.32;11.52;;;;;;;8.12;100.00;99050.06;10376525;28;20046;-73
2022/12/22 18:51:59;;;;;;;12.98;12.07;;;;;;;8.10;100.00;99039.63;10376621;28;20096;-73
2022/12/22 18:57:01;;;;;;;11.90;11.10;;;;;;;7.71;100.00;99034.13;10375681;28;20049;-73
2022/12/22 19:02:20;;;;;;;13.27;12.35;;;;;;;7.48;100.00;99027.97;10357540;28;20056;-73
2022/12/22 19:07:23;;;;;;;13.30;12.40;;;;;;;7.45;100.00;99037.66;10375633;28;20041;-73
2022/12/22 19:12:26;;;;;;;12.40;11.50;;;;;;;7.08;100.00;99033.69;10375665;28;20049;-73
2022/12/22 19:17:28;;;;;;;13.10;12.10;;;;;;;6.93;100.00;99039.44;10375337;28;20064;-73
2022/12/22 19:22:30;;;;;;;14.35;13.35;;;;;;;6.92;100.00;99029.88;10357064;28;20086;-73
2022/12/22 19:27:32;;;;;;;14.00;12.95;;;;;;;6.80;100.00;99039.81;10375115;28;20373;-73
2022/12/22 19:32:44;;;;;;;14.32;13.23;;;;;;;6.47;100.00;99046.13;10374700;28;20042;-73
2022/12/22 19:37:48;;;;;;;14.60;13.50;;;;;;;6.28;100.00;99033.59;10374913;28;20458;-73
2022/12/22 19:42:54;;;;;;;14.07;13.07;;;;;;;6.34;100.00;99040.41;10374129;28;20419;-73
2022/12/22 19:47:56;;;;;;;14.32;13.30;;;;;;;6.21;100.00;99034.72;10375224;28;20085;-73
2022/12/22 19:52:58;;;;;;;15.00;13.90;;;;;;;6.11;100.00;99037.63;10374862;28;20228;-73
2022/12/22 19:58:01;;;;;;;13.55;12.55;;;;;;;6.25;100.00;99025.03;10374221;28;20050;-73
2022/12/22 20:03:04;;;;;;;14.85;13.75;;;;;;;6.15;100.00;99032.28;10374786;28;20077;-72
2022/12/22 20:08:06;;;;;;;15.18;14.05;;;;;;;6.20;100.00;99032.16;10374167;28;20411;-72
2022/12/22 20:13:15;;;;;;;14.18;13.13;;;;;;;6.15;100.00;99034.03;10373601;28;20100;-72
2022/12/22 20:18:20;;;;;;;15.27;14.18;;;;;;;6.04;100.00;99032.59;10373521;28;20042;-72
2022/12/22 20:23:23;;;;;;;14.25;13.25;;;;;;;5.94;100.00;99039.00;10382648;28;20061;-73
2022/12/22 20:28:28;;;;;;;15.10;13.88;;;;;;;5.81;100.00;99040.22;10381574;28;20038;-73
2022/12/22 20:33:31;;;;;;;15.27;14.18;;;;;;;5.76;100.00;99032.53;10380607;28;20468;-72
2022/12/22 20:38:36;;;;;;;16.10;14.68;;;;;;;5.86;100.00;99038.31;10381590;28;20408;-72
2022/12/22 20:43:38;;;;;;;14.88;13.82;;;;;;;5.91;100.00;99026.00;10416571;22;20103;-75
2022/12/22 20:48:46;;;;;;;16.05;14.73;;;;;;;5.98;100.00;99017.13;10422761;28;20112;-75
2022/12/22 20:53:49;;;;;;;15.10;14.00;;;;;;;6.07;100.00;99024.69;10422852;28;20410;-75
2022/12/22 20:58:51;;;;;;;16.58;14.93;;;;;;;6.19;100.00;99018.22;10421168;28;20107;-77
2022/12/22 21:03:53;;;;;;;14.30;13.30;;;;;;;6.34;100.00;99036.97;10423658;28;20088;-75
2022/12/22 21:08:57;;;;;;;14.73;13.57;;;;;;;6.27;100.00;99028.44;10421946;28;20077;-75
2022/12/22 21:14:01;;;;;;;13.35;12.35;;;;;;;6.31;100.00;99020.47;10421523;28;20103;-76
2022/12/22 21:19:03;;;;;;;13.95;13.02;;;;;;;6.34;100.00;99027.38;10420875;28;20124;-75
2022/12/22 21:24:05;;;;;;;15.43;14.23;;;;;;;6.39;100.00;99022.84;10421763;28;20096;-76
2022/12/22 21:29:14;;;;;;;14.48;13.43;;;;;;;6.24;100.00;99021.59;10420910;28;20041;-76
2022/12/22 21:34:16;;;;;;;14.55;13.45;;;;;;;6.28;100.00;99025.78;10401444;28;20084;-75
2022/12/22 21:39:35;;;;;;;13.13;12.23;;;;;;;6.15;100.00;99016.63;10403823;28;20053;-75
2022/12/22 21:44:38;;;;;;;12.57;11.60;;;;;;;5.98;100.00;99006.72;10420564;28;20038;-75
2022/12/22 21:49:39;;;;;;;13.40;12.35;;;;;;;5.82;100.00;98994.97;10420214;28;20046;-75
2022/12/22 21:54:44;;;;;;;14.85;13.45;;;;;;;5.75;100.00;98994.28;10420271;28;20057;-76
2022/12/22 21:59:46;;;;;;;13.65;12.50;;;;;;;5.81;100.00;98998.47;10420129;28;20160;-76
2022/12/22 22:04:47;;;;;;;11.25;10.35;;;;;;;6.15;100.00;98992.28;10419303;28;20033;-76
2022/12/22 22:09:55;;;;;;;11.10;10.23;;;;;;;6.30;100.00;98982.25;10418748;28;20088;-75
2022/12/22 22:14:59;;;;;;;9.90;9.20;;;;;;;6.38;100.00;98974.19;10419707;28;20049;-76
2022/12/22 22:20:01;;;;;;;10.60;9.73;;;;;;;6.27;100.00;98969.28;10419649;28;20045;-76
2022/12/22 22:25:04;;;;;;;9.73;8.93;;;;;;;6.21;100.00;98977.31;10401244;28;20100;-76
2022/12/22 22:30:12;;;;;;;11.98;11.07;;;;;;;5.96;100.00;98971.97;10418279;28;20394;-74
2022/12/22 22:35:15;;;;;;;11.90;10.93;;;;;;;5.76;100.00;98950.84;10417962;28;20045;-74
2022/12/22 22:40:20;;;;;;;14.15;13.15;;;;;;;5.61;100.00;98933.88;10417116;28;20049;-75
2022/12/22 22:45:23;;;;;;;13.52;12.43;;;;;;;5.57;100.00;98922.66;10416416;28;20124;-76
2022/12/22 22:50:25;;;;;;;13.30;12.20;;;;;;;5.57;100.00;98921.81;10416990;28;20128;-75
2022/12/22 22:55:26;;;;;;;15.15;13.95;;;;;;;5.63;100.00;98926.03;10416651;28;20425;-75
2022/12/22 23:00:28;;;;;;;14.07;12.98;;;;;;;5.54;100.00;98916.72;10416091;28;20055;-76
2022/12/22 23:05:30;;;;;;;14.27;13.18;;;;;;;5.46;100.00;98911.72;10416249;28;20041;-76
2022/12/22 23:10:32;;;;;;;15.15;13.93;;;;;;;5.59;100.00;98913.97;10415773;28;20037;-76
2022/12/22 23:15:42;;;;;;;16.05;14.85;;;;;;;5.52;100.00;98913.28;10416871;28;20065;-76
2022/12/22 23:20:43;;;;;;;19.90;17.90;;;;;;;5.60;100.00;98897.44;10415724;28;20049;-75
2022/12/22 23:25:48;;;;;;;13.77;12.52;;;;;;;5.99;100.00;98898.00;10416709;28;20045;-76
2022/12/22 23:30:51;;;;;;;13.05;12.00;;;;;;;5.76;100.00;98893.47;10415955;28;20061;-76
2022/12/22 23:35:53;;;;;;;12.90;11.90;;;;;;;5.55;100.00;98897.56;10415598;28;20053;-76
2022/12/22 23:41:11;;;;;;;13.50;12.15;;;;;;;5.52;100.00;98887.22;10398010;28;20510;-76
2022/12/22 23:46:15;;;;;;;13.15;12.07;;;;;;;5.57;100.00;98886.16;10415968;28;20093;-76
2022/12/22 23:51:18;;;;;;;13.23;12.07;;;;;;;5.20;100.00;98867.31;10415655;28;20045;-75
2022/12/22 23:56:20;;;;;;;13.18;12.18;;;;;;;5.23;100.00;98868.09;10419435;28;20065;-75
